Terminal Aerodrome Forecast
Issued by NWS Boise, ID

Home | Current Version | Previous Version | Text Only | Print | Product List | Glossary On
Versions: 1 2 3 4 5 6 7 8 9 10 11 12 13
000
FTUS45 KBOI 292321
TAFBOI
TAF
KBOI 292321Z 3000/3024 33011KT P6SM SCT100 SCT250
     FM300800 28005KT P6SM SCT250
     FM302000 31014G22KT P6SM SCT250=

USA.gov is the U.S. government's official web portal to all federal, state and local government web resources and services.